Perle — V2GH — position and weather

sailwx.info

Track history (hours):
 
Tides and Currents Weather Stations Pressure Air Temp Water Temp Dewpoint Dewpoint Depression Visibility Wind Speed Wind Dir Waves Ship Positions

Perle

Last reported at 2017-Sep-16 20:19 UTC. Time now 2017-Sep-22 17:21 UTC.
Position N 51°30' W 010°15'.

Length 90 m; draft 4.1 m.

Type: Cargo ship. MMSI: 305882000.

Date/timePositionNaut miles runAvg speedWind from/ knotsBaromVisibWave heightAir tempDewpointWater temp
2017-Sep-16 20:19N 51°30' W 010°15'310.4
2017-Sep-16 19:59N 51°29' W 010°10'510.2
2017-Sep-16 19:30N 51°27' W 010°03'510.5
2017-Sep-16 19:00N 51°25' W 009°55'510.9
2017-Sep-16 18:30N 51°23' W 009°47'510.6
2017-Sep-16 18:00N 51°21' W 009°39'5 9.8
2017-Sep-16 17:30N 51°21' W 009°31'510.5
2017-Sep-16 17:00N 51°23' W 009°23'510.6
2017-Sep-16 16:30N 51°24' W 009°15'510.6
2017-Sep-16 16:01N 51°26' W 009°07'510.3
2017-Sep-16 15:30N 51°28' W 008°59'510.5
2017-Sep-16 15:00N 51°29' W 008°51'510.5
2017-Sep-16 14:30N 51°31' W 008°43'510.3
2017-Sep-16 14:00N 51°33' W 008°36'510.1
2017-Sep-16 13:30N 51°35' W 008°28'510.1
2017-Sep-16 13:00N 51°36' W 008°20'5 9.8
2017-Sep-16 12:30N 51°39' W 008°14'510.3
2017-Sep-16 12:00N 51°41' W 008°06'510.4
2017-Sep-16 11:30N 51°43' W 007°58'510.2
2017-Sep-16 11:00N 51°45' W 007°51'510.3
2017-Sep-16 10:30N 51°47' W 007°43'510.5
2017-Sep-16 10:00N 51°49' W 007°35'510.5
2017-Sep-16 09:30N 51°50' W 007°27'510.5
2017-Sep-16 09:00N 51°52' W 007°19'510.6
2017-Sep-16 08:30N 51°54' W 007°11'510.5
2017-Sep-16 08:00N 51°56' W 007°03'510.5
2017-Sep-16 07:30N 51°58' W 006°55'510.3
2017-Sep-16 07:00N 51°60' W 006°47'510.0
2017-Sep-16 06:30N 52°01' W 006°40'5 9.8
2017-Sep-16 06:00N 52°03' W 006°32'5 9.5
2017-Sep-16 05:30N 52°05' W 006°25'5 9.1
2017-Sep-16 05:00N 52°07' W 006°18'4 8.7
2017-Sep-16 04:30N 52°09' W 006°12'4 8.3
2017-Sep-16 04:01N 52°10' W 006°06'4 8.5
2017-Sep-16 03:31N 52°14' W 006°04'4 8.6
2017-Sep-16 03:00N 52°19' W 006°02'5 9.2
2017-Sep-16 02:31N 52°23' W 005°59'5 9.5
2017-Sep-16 02:00N 52°27' W 005°57'8910.8
2017-Sep-15 17:46N 53°57' W 006°01'310.7
2017-Sep-15 17:29N 53°60' W 006°02'  
2017-Sep-12 19:31N 54°02' W 006°07'2 6.6
2017-Sep-12 19:14N 54°01' W 006°04'2 7.0
2017-Sep-12 19:00N 53°60' W 006°02'1 0.1
2017-Sep-12 11:55N 53°59' W 006°02'6 9.3
2017-Sep-12 11:17N 53°53' W 005°58'86 8.4
2017-Sep-12 01:04N 52°28' W 005°51'111.1
2017-Sep-12 00:58N 52°27' W 005°52'511.3
2017-Sep-12 00:30N 52°22' W 005°54'611.6
2017-Sep-12 00:01N 52°16' W 005°56'611.5
2017-Sep-11 23:31N 52°11' W 005°58'611.0
2017-Sep-11 22:59N 52°05' W 006°02'510.8
2017-Sep-11 22:30N 52°01' W 006°07'510.2
2017-Sep-11 22:00N 51°57' W 006°12'  
Track history (hours):
 
Tides and Currents Weather Stations Pressure Air Temp Water Temp Dewpoint Dewpoint Depression Visibility Wind Speed Wind Dir Waves Ship Positions

Perle

Last reported at 2017-Sep-16 20:19 UTC. Time now 2017-Sep-22 17:21 UTC.
Position N 51°30' W 010°15'.

Length 90 m; draft 4.1 m.

Type: Cargo ship. MMSI: 305882000.

Date/timePositionNaut miles runAvg speedWind from/ knotsBaromVisibWave heightAir tempDewpointWater temp
2017-Sep-16 20:19N 51°30' W 010°15'310.4
2017-Sep-16 19:59N 51°29' W 010°10'510.2
2017-Sep-16 19:30N 51°27' W 010°03'510.5
2017-Sep-16 19:00N 51°25' W 009°55'510.9
2017-Sep-16 18:30N 51°23' W 009°47'510.6
2017-Sep-16 18:00N 51°21' W 009°39'5 9.8
2017-Sep-16 17:30N 51°21' W 009°31'510.5
2017-Sep-16 17:00N 51°23' W 009°23'510.6
2017-Sep-16 16:30N 51°24' W 009°15'510.6
2017-Sep-16 16:01N 51°26' W 009°07'510.3
2017-Sep-16 15:30N 51°28' W 008°59'510.5
2017-Sep-16 15:00N 51°29' W 008°51'510.5
2017-Sep-16 14:30N 51°31' W 008°43'510.3
2017-Sep-16 14:00N 51°33' W 008°36'510.1
2017-Sep-16 13:30N 51°35' W 008°28'510.1
2017-Sep-16 13:00N 51°36' W 008°20'5 9.8
2017-Sep-16 12:30N 51°39' W 008°14'510.3
2017-Sep-16 12:00N 51°41' W 008°06'510.4
2017-Sep-16 11:30N 51°43' W 007°58'510.2
2017-Sep-16 11:00N 51°45' W 007°51'510.3
2017-Sep-16 10:30N 51°47' W 007°43'510.5
2017-Sep-16 10:00N 51°49' W 007°35'510.5
2017-Sep-16 09:30N 51°50' W 007°27'510.5
2017-Sep-16 09:00N 51°52' W 007°19'510.6
2017-Sep-16 08:30N 51°54' W 007°11'510.5
2017-Sep-16 08:00N 51°56' W 007°03'510.5
2017-Sep-16 07:30N 51°58' W 006°55'510.3
2017-Sep-16 07:00N 51°60' W 006°47'510.0
2017-Sep-16 06:30N 52°01' W 006°40'5 9.8
2017-Sep-16 06:00N 52°03' W 006°32'5 9.5
2017-Sep-16 05:30N 52°05' W 006°25'5 9.1
2017-Sep-16 05:00N 52°07' W 006°18'4 8.7
2017-Sep-16 04:30N 52°09' W 006°12'4 8.3
2017-Sep-16 04:01N 52°10' W 006°06'4 8.5
2017-Sep-16 03:31N 52°14' W 006°04'4 8.6
2017-Sep-16 03:00N 52°19' W 006°02'5 9.2
2017-Sep-16 02:31N 52°23' W 005°59'5 9.5
2017-Sep-16 02:00N 52°27' W 005°57'8910.8
2017-Sep-15 17:46N 53°57' W 006°01'310.7
2017-Sep-15 17:29N 53°60' W 006°02'  
2017-Sep-12 19:31N 54°02' W 006°07'2 6.6
2017-Sep-12 19:14N 54°01' W 006°04'2 7.0
2017-Sep-12 19:00N 53°60' W 006°02'1 0.1
2017-Sep-12 11:55N 53°59' W 006°02'6 9.3
2017-Sep-12 11:17N 53°53' W 005°58'86 8.4
2017-Sep-12 01:04N 52°28' W 005°51'111.1
2017-Sep-12 00:58N 52°27' W 005°52'511.3
2017-Sep-12 00:30N 52°22' W 005°54'611.6
2017-Sep-12 00:01N 52°16' W 005°56'611.5
2017-Sep-11 23:31N 52°11' W 005°58'611.0
2017-Sep-11 22:59N 52°05' W 006°02'510.8
2017-Sep-11 22:30N 52°01' W 006°07'510.2
2017-Sep-11 22:00N 51°57' W 006°12'  

Dump ship's entire track history